Latest Coastal Weather Observations for Milingimbi

IDD60701

Issued at 8:01 pm CST Monday 23 January 2017 (issued every 10 minutes, with the page automatically refreshed every 10 minutes)

About coastal observations | Map of coastal stations | Coastal observations for NT | Marine services | Other Formats
Station Details ID: 014404 Name: MILINGIMBI AIRPORT Lat: -12.09 Lon: 134.89 Height: 15.0 m
Data from the previous 72 hours. | See also: Recent months at Milingimbi
Date/Time
CST
Temp
°C
Wind Pressure Rain since
9am
mm
Weather Cloud Vis
km
Sea
Height
m
Swell
Dir  Spd
kts
Gust
kts
hPa Trend Height
m
Period
s
Dir
23/08:00pm 25.0 - 10 15 1006.8 - 8.6 - - - - - - -
23/07:30pm 26.4 - 10 17 1006.4 - 8.4 - - - - - - -
23/07:00pm 26.6 - 5 8 1005.8 - 8.2 - - - - - - -
23/06:30pm 26.2 - 4 6 1005.6 - 8.2 - - - - - - -
23/06:00pm 26.1 - 7 11 1005.0 - 8.0 - - - - - - -
23/05:30pm 26.1 - 10 16 1004.9 - 6.4 - - - - - - -
23/05:00pm 26.7 - 7 9 1004.6 - 6.0 - - - - - - -
23/04:30pm 26.3 - 8 12 1004.5 - 6.0 - - - - - - -
23/04:00pm 26.6 - 6 8 1004.2 - 5.8 - - - - - - -
23/03:30pm 25.8 - 6 10 1004.4 - 5.2 - - - - - - -
23/03:00pm 26.5 - 11 18 1004.6 - 0.8 - - - - - - -
23/02:30pm 30.3 - 6 11 1004.4 - 0.2 - - - - - - -
23/02:00pm 29.7 - 9 13 1004.8 - 0.0 - - - - - - -
23/01:30pm 29.4 - 7 11 1005.4 - 0.0 - - - - - - -
23/01:00pm 28.9 - 8 11 1005.8 - 0.0 - - - - - - -
23/12:30pm 28.9 - 8 13 1006.1 - 0.0 - - - - - - -
23/12:00pm 28.5 - 11 19 1006.2 - 0.0 - - - - - - -
23/11:30am 28.8 - 11 15 1006.7 - 0.0 - - - - - - -
23/11:00am 27.7 - 9 12 1007.2 - 0.0 - - - - - - -
23/10:30am 26.6 - 9 14 1007.4 - 0.0 - - - - - - -
23/10:00am 25.8 - 7 10 1007.7 - 0.0 - - - - - - -
23/09:30am 25.4 - 8 11 1007.8 - 0.0 - - - - - - -
23/09:00am 24.8 - 5 9 1007.5 - 102.0 - - - - - - -
23/08:30am 24.7 - 5 7 1007.4 - 102.0 - - - - - - -
23/08:00am 24.4 - 7 9 1007.2 - 102.0 - - - - - - -
23/07:30am 24.1 - 6 8 1006.9 - 101.6 - - - - - - -
23/07:00am 24.2 - 8 12 1006.6 - 99.6 - - - - - - -
23/06:30am 24.2 - 6 8 1006.0 - 98.8 - - - - - - -
23/06:00am 24.3 - 9 13 1005.3 - 98.0 - - - - - - -
23/05:30am 24.9 - 7 10 1005.0 - 97.2 - - - - - - -
23/05:00am 25.0 - 6 10 1004.6 - 96.4 - - - - - - -
23/04:30am 25.2 - 6 8 1004.9 - 96.0 - - - - - - -
23/04:00am 25.2 - 6 8 1004.7 - 96.0 - - - - - - -
23/03:30am 25.1 - 6 8 1004.8 - 96.0 - - - - - - -
23/03:00am 25.2 - 5 8 1004.7 - 96.0 - - - - - - -
23/02:30am 25.5 - 6 9 1005.4 - 96.0 - - - - - - -
23/02:00am 25.5 - 8 13 1005.5 - 96.0 - - - - - - -
23/01:30am 25.6 - 7 10 1006.1 - 96.0 - - - - - - -
23/01:00am 25.4 - 5 8 1006.6 - 96.0 - - - - - - -
23/12:30am 25.4 - 9 13 1006.9 - 96.0 - - - - - - -
23/12:00am 25.1 - 9 13 1007.2 - 96.0 - - - - - - -
 
Date/Time
CST
Temp
°C
Wind Pressure Rain since
9am
mm
Weather Cloud Vis
km
Sea
Height
m
Swell
Dir  Spd
kts
Gust
kts
hPa Trend Height
m
Period
s
Dir
22/11:30pm 24.7 - 8 11 1007.7 - 96.0 - - - - - - -
22/11:00pm 24.6 - 8 11 1007.9 - 96.0 - - - - - - -
22/10:30pm 24.6 - 8 12 1008.2 - 96.0 - - - - - - -
22/10:00pm 25.0 - 7 11 1008.1 - 95.8 - - - - - - -
22/09:30pm 25.0 - 7 11 1007.9 - 94.0 - - - - - - -
22/09:00pm 24.9 - 10 15 1007.6 - 92.2 - - - - - - -
22/08:30pm 24.9 - 8 11 1007.1 - 92.0 - - - - - - -
22/08:00pm 25.2 - 8 13 1007.1 - 91.6 - - - - - - -
22/07:30pm 25.0 - 11 17 1007.0 - 89.6 - - - - - - -
22/07:00pm 24.9 - 8 13 1007.0 - 87.2 - - - - - - -
22/06:30pm 25.0 - 8 15 1007.0 - 73.6 - - - - - - -
22/06:00pm 25.5 - 9 15 1006.6 - 66.4 - - - - - - -
22/05:30pm 25.2 - 7 11 1006.4 - 64.4 - - - - - - -
22/05:00pm 25.6 - 10 16 1006.0 - 63.4 - - - - - - -
22/04:30pm 25.4 - 5 8 1005.7 - 62.0 - - - - - - -
22/04:00pm 24.7 - 5 9 1005.6 - 62.0 - - - - - - -
22/03:30pm 25.2 - 12 16 1005.8 - 59.8 - - - - - - -
22/03:00pm 25.7 - 6 16 1005.8 - 43.8 - - - - - - -
22/02:30pm 24.6 - 9 15 1006.7 - 32.8 - - - - - - -
22/02:00pm 25.1 - 3 7 1007.0 - 29.0 - - - - - - -
22/01:30pm 24.2 - 5 12 1007.2 - 28.2 - - - - - - -
22/01:00pm 27.7 - 5 7 1006.9 - 3.0 - - - - - - -
22/12:30pm 28.3 - 6 9 1007.7 - 1.0 - - - - - - -
22/12:00pm 26.5 - 5 11 1008.1 - 0.8 - - - - - - -
22/11:45am 28.6 - 15 19 1008.7 - 0.0 - - - - - - -
22/11:30am 31.2 - 5 8 1008.5 - 0.0 - - - - - - -
22/11:00am 30.3 - 6 8 1009.0 - 0.0 - - - - - - -
22/10:30am 29.5 - 8 11 1009.5 - 0.0 - - - - - - -
22/10:00am 29.3 - 9 12 1009.6 - 0.0 - - - - - - -
22/09:30am 29.4 - 6 9 1009.4 - 0.0 - - - - - - -
22/09:00am 27.7 - 5 7 1009.3 - 18.8 - - - - - - -
22/08:30am 27.2 - 7 10 1009.3 - 18.8 - - - - - - -
22/08:00am 26.7 - 5 7 1009.3 - 18.8 - - - - - - -
22/07:30am 26.2 - 5 7 1008.9 - 18.8 - - - - - - -
22/07:00am 25.7 - 4 5 1008.5 - 18.8 - - - - - - -
22/06:30am 25.5 - 4 6 1008.0 - 18.8 - - - - - - -
22/06:00am 25.5 - 6 7 1007.4 - 18.8 - - - - - - -
22/05:30am 25.4 - 6 8 1007.5 - 18.8 - - - - - - -
22/05:00am 25.5 - 6 9 1007.6 - 18.8 - - - - - - -
22/04:30am 25.5 - 6 9 1007.8 - 18.8 - - - - - - -
22/04:00am 25.5 - 4 6 1008.0 - 18.6 - - - - - - -
22/03:30am 25.7 - 4 5 1008.3 - 18.4 - - - - - - -
22/03:00am 25.7 - 3 5 1008.3 - 17.8 - - - - - - -
22/02:30am 25.7 - 4 5 1008.6 - 17.0 - - - - - - -
22/02:00am 25.7 - 3 5 1008.7 - 16.6 - - - - - - -
22/01:30am 25.6 - 5 7 1009.1 - 15.8 - - - - - - -
22/01:00am 25.5 - 4 5 1009.3 - 15.6 - - - - - - -
22/12:30am 25.4 - 5 6 1009.8 - 15.4 - - - - - - -
22/12:00am 25.4 - 4 5 1010.1 - 15.2 - - - - - - -
 
Date/Time
CST
Temp
°C
Wind Pressure Rain since
9am
mm
Weather Cloud Vis
km
Sea
Height
m
Swell
Dir  Spd
kts
Gust
kts
hPa Trend Height
m
Period
s
Dir
21/11:30pm 25.5 CALM 0 3 1010.5 - 15.0 - - - - - - -
21/11:00pm 25.7 - 2 4 1010.7 - 15.0 - - - - - - -
21/10:30pm 25.5 CALM 0 0 1010.7 - 15.0 - - - - - - -
21/10:00pm 25.4 - 1 3 1010.3 - 15.0 - - - - - - -
21/09:30pm 25.3 - 3 4 1010.1 - 14.8 - - - - - - -
21/09:00pm 25.3 - 3 5 1010.0 - 14.4 - - - - - - -
21/08:30pm 25.0 - 3 4 1009.9 - 13.4 - - - - - - -
21/08:00pm 24.9 - 3 6 1009.3 - 11.4 - - - - - - -
21/07:30pm 26.1 - 6 11 1009.7 - 7.8 - - - - - - -
21/07:00pm 26.4 - 7 10 1008.6 - 7.0 - - - - - - -
21/06:30pm 26.7 - 5 8 1008.4 - 5.4 - - - - - - -
21/06:00pm 29.4 - 7 11 1007.8 - 0.0 - - - - - - -
21/05:30pm 29.5 - 6 10 1007.3 - 0.0 - - - - - - -
21/05:00pm 29.6 - 7 11 1007.2 - 0.0 - - - - - - -
21/04:30pm 29.8 - 7 11 1006.7 - 0.0 - - - - - - -
21/04:00pm 30.5 - 9 16 1006.3 - 0.0 - - - - - - -
21/03:30pm 31.4 - 8 13 1006.6 - 0.0 - - - - - - -
21/03:00pm 31.2 - 10 15 1006.8 - 0.0 - - - - - - -
21/02:30pm 30.8 - 9 15 1007.3 - 0.0 - - - - - - -
21/02:00pm 31.9 - 9 13 1007.7 - 0.0 - - - - - - -
21/01:30pm 31.3 - 9 15 1008.4 - 0.0 - - - - - - -
21/01:00pm 31.9 - 8 13 1008.7 - 0.0 - - - - - - -
21/12:30pm 32.4 - 10 16 1009.2 - 0.0 - - - - - - -
21/12:00pm 31.7 - 10 16 1009.4 - 0.0 - - - - - - -
21/11:30am 31.4 - 9 15 1009.8 - 0.0 - - - - - - -
21/11:00am 31.4 - 7 11 1010.1 - 0.0 - - - - - - -
21/10:30am 29.6 - 8 12 1010.3 - 0.0 - - - - - - -
21/10:00am 29.5 - 6 9 1010.4 - 0.0 - - - - - - -
21/09:30am 28.7 - 6 8 1010.6 - 0.0 - - - - - - -
21/09:00am 27.6 - 3 5 1010.4 - 12.8 - - - - - - -
21/08:30am 26.3 W 3 3 1010.6 - 12.8 - - - - - - -
21/08:00am 25.7 WSW 2 4 1010.5 - 12.8 - - - - - - -
21/07:30am 25.2 CALM 0 0 1010.4 - 12.8 - - - - - - -
21/07:00am 25.1 W 2 4 1010.3 - 12.8 - - - - - - -
21/06:30am 25.0 W 3 4 1009.9 - 12.8 - - - - - - -
21/06:00am 24.8 W 2 4 1009.5 - 12.8 - - - - - - -
21/05:30am 24.8 CALM 0 0 1009.2 - 12.8 - - - - - - -
21/05:00am 24.7 WSW 2 3 1009.0 - 12.8 - - - - - - -
21/04:30am 24.6 CALM 0 5 1008.9 - 12.8 - - - - - - -
21/04:00am 24.6 W 3 4 1008.7 - 12.8 - - - - - - -
21/03:30am 24.7 W 4 6 1008.9 - 12.8 - - - - - - -
21/03:00am 24.5 W 4 5 1008.6 - 12.8 - - - - - - -
21/02:30am 24.5 W 4 5 1008.7 - 12.8 - - - - - - -
21/02:00am 24.4 W 5 6 1008.8 - 12.8 - - - - - - -
21/01:30am 24.3 CALM 0 0 1008.9 - 12.8 - - - - - - -
21/01:00am 24.2 NNW 3 5 1009.3 - 12.8 - - - - - - -
21/12:30am 24.3 W 3 4 1009.5 - 12.8 - - - - - - -
21/12:00am 24.1 WSW 4 5 1009.7 - 12.8 - - - - - - -
 
Date/Time
CST
Temp
°C
Wind Pressure Rain since
9am
mm
Weather Cloud Vis
km
Sea
Height
m
Swell
Dir  Spd
kts
Gust
kts
hPa Trend Height
m
Period
s
Dir
20/11:30pm 24.1 WSW 5 8 1010.0 - 12.8 - - - - - - -
20/11:00pm 24.1 SW 5 7 1010.2 - 12.6 - - - - - - -
20/10:30pm 24.0 WSW 8 12 1010.5 - 12.4 - - - - - - -
20/10:00pm 24.7 W 13 21 1010.8 - 7.2 - - - - - - -
20/09:30pm 26.0 WSW 3 5 1010.1 - 5.4 - - - - - - -
20/09:00pm 25.9 WSW 3 4 1009.9 - 5.4 - - - - - - -
20/08:30pm 25.8 WSW 1 4 1009.2 - 5.4 - - - - - - -

Other Formats:

Comma delimited format used in spreadsheet applications
http://www.bom.gov.au/fwo/IDD60701/IDD60701.94140.axf

JavaScript Object Notation format (JSON) in row-major order
http://www.bom.gov.au/fwo/IDD60701/IDD60701.94140.json